Weather at Sheremetyevo International Airport

Public forecast

Using degrees Celsius for public forecast. Weather courtesy of forecast.io.

Current aviation weather report (METAR) for Sheremetyevo International Airport

2024/04/22 16:00 (retrieved 23 minutes ago)

UUEE 221600Z 18006G12MPS 150V220 9999 BKN032 11/04 Q1013 WS R24L WS R24C R24L/CLRD62 R24C/CLRD62 NOSIG

Aviation forecast (TAF) for Sheremetyevo International Airport

2024/04/22 15:21 (retrieved 1 hour ago)

TAF UUEE 221355Z 2215/2315 18006G11MPS 9999 BKN020 TX12/2312Z TN05/2302Z TEMPO 2215/2219 21009G16MPS BECMG 2302/2305 24005MPS TEMPO 2309/2315 26008G14MPS